createdAt,value
2023-02-12T00:00:09.916Z,18.30
2023-02-12T00:02:42.739Z,16.87
2023-02-12T00:05:09.526Z,15.60
2023-02-12T00:07:36.221Z,16.27
2023-02-12T00:10:03.930Z,15.80
2023-02-12T00:12:30.924Z,14.23
2023-02-12T00:14:57.785Z,16.73
2023-02-12T00:17:24.487Z,15.13
2023-02-12T00:19:51.354Z,14.60
2023-02-12T00:22:18.007Z,16.07
2023-02-12T00:24:44.747Z,15.63
2023-02-12T00:27:11.793Z,16.57
2023-02-12T00:29:38.685Z,17.43
2023-02-12T00:32:05.786Z,11.53
2023-02-12T00:34:32.594Z,15.30
2023-02-12T00:36:59.433Z,15.10
2023-02-12T00:39:27.307Z,11.83
2023-02-12T00:41:55.962Z,12.77
2023-02-12T00:44:22.735Z,16.77
2023-02-12T00:46:50.242Z,14.67
2023-02-12T00:49:19.222Z,14.97
2023-02-12T00:51:46.277Z,16.13
2023-02-12T00:54:13.079Z,15.57
2023-02-12T00:56:39.905Z,11.50
2023-02-12T00:59:06.691Z,11.40
2023-02-12T01:01:36.035Z,14.40
2023-02-12T01:04:04.254Z,15.60
2023-02-12T01:06:31.212Z,12.90
2023-02-12T01:08:58.549Z,13.73
2023-02-12T01:11:25.309Z,11.87
2023-02-12T01:13:52.383Z,13.43
2023-02-12T01:16:24.552Z,10.53
2023-02-12T01:18:55.856Z,13.97
2023-02-12T01:21:29.188Z,10.87
2023-02-12T01:23:56.889Z,10.97
2023-02-12T01:26:24.754Z,13.27
2023-02-12T01:28:53.909Z,12.33
2023-02-12T01:31:25.120Z,12.77
2023-02-12T01:33:54.486Z,13.30
2023-02-12T01:36:22.450Z,12.03
2023-02-12T01:38:49.837Z,15.03
2023-02-12T01:41:25.726Z,12.17
2023-02-12T01:44:24.291Z,11.00
2023-02-12T01:46:57.068Z,12.60
2023-02-12T01:49:29.547Z,10.63
2023-02-12T01:52:05.806Z,12.57
2023-02-12T01:54:35.710Z,12.07
2023-02-12T01:57:04.534Z,14.57
2023-02-12T01:59:32.852Z,13.17
2023-02-12T02:02:00.009Z,12.53
2023-02-12T02:04:36.106Z,12.47
2023-02-12T02:07:05.919Z,11.77
2023-02-12T02:09:36.267Z,12.80
2023-02-12T02:12:22.646Z,15.20
2023-02-12T02:14:52.688Z,11.33
2023-02-12T02:17:24.122Z,12.27
2023-02-12T02:20:32.256Z,12.63
2023-02-12T02:23:04.989Z,12.37
2023-02-12T02:25:50.070Z,14.27
2023-02-12T02:28:22.557Z,13.80
2023-02-12T02:30:55.391Z,13.20
2023-02-12T02:33:58.101Z,12.20
2023-02-12T02:36:32.264Z,11.97
2023-02-12T02:39:19.331Z,12.53
2023-02-12T02:42:01.768Z,12.00
2023-02-12T02:45:02.533Z,13.10
2023-02-12T02:47:35.321Z,12.27
2023-02-12T02:50:10.938Z,11.77
2023-02-12T02:52:43.493Z,13.23
2023-02-12T02:55:14.170Z,14.50
2023-02-12T02:57:59.046Z,13.43
2023-02-12T03:00:37.480Z,12.40
2023-02-12T03:03:20.898Z,15.87
2023-02-12T03:05:51.811Z,12.50
2023-02-12T03:08:25.251Z,13.97
2023-02-12T03:10:57.759Z,11.73
2023-02-12T03:13:36.667Z,11.93
2023-02-12T03:16:12.220Z,12.87
2023-02-12T03:18:46.996Z,8.93
2023-02-12T03:21:18.832Z,13.00
2023-02-12T03:23:59.413Z,11.17
2023-02-12T03:26:41.326Z,11.37
2023-02-12T03:29:08.304Z,12.37
2023-02-12T03:31:44.985Z,12.13
2023-02-12T03:34:39.677Z,14.20
2023-02-12T03:37:17.967Z,11.80
2023-02-12T03:39:54.833Z,13.40
2023-02-12T03:42:32.644Z,14.60
2023-02-12T03:45:08.352Z,14.07
2023-02-12T03:48:10.570Z,12.37
2023-02-12T03:50:41.917Z,13.20
2023-02-12T03:53:08.777Z,12.37
2023-02-12T03:55:41.298Z,12.00
2023-02-12T03:58:11.108Z,12.10
2023-02-12T04:00:39.458Z,14.67
2023-02-12T04:03:07.204Z,12.50
2023-02-12T04:05:34.260Z,10.83
2023-02-12T04:08:04.359Z,10.77
2023-02-12T04:10:58.952Z,13.07
2023-02-12T04:13:34.285Z,10.00
2023-02-12T04:16:25.587Z,13.50
2023-02-12T04:18:54.117Z,12.63
2023-02-12T04:21:42.569Z,10.27
2023-02-12T04:24:24.655Z,12.73
2023-02-12T04:27:20.525Z,10.03
2023-02-12T04:29:53.655Z,10.37
2023-02-12T04:32:40.552Z,11.63
2023-02-12T04:35:13.184Z,11.67
2023-02-12T04:37:48.597Z,12.67
2023-02-12T04:40:18.732Z,10.13
2023-02-12T04:42:51.348Z,11.07
2023-02-12T04:45:24.791Z,12.60
2023-02-12T04:47:52.452Z,12.17
2023-02-12T04:50:20.149Z,11.97
2023-02-12T04:52:47.172Z,9.33
2023-02-12T04:55:14.937Z,11.90
2023-02-12T04:57:41.672Z,11.57
2023-02-12T05:00:11.862Z,8.13
2023-02-12T05:02:38.899Z,12.43
2023-02-12T05:05:06.214Z,9.37
2023-02-12T05:07:33.020Z,7.67
2023-02-12T05:10:00.430Z,9.83
2023-02-12T05:12:27.134Z,9.83
2023-02-12T05:14:53.847Z,13.57
2023-02-12T05:17:23.635Z,8.67
2023-02-12T05:19:50.556Z,10.73
2023-02-12T05:22:17.993Z,8.87
2023-02-12T05:24:45.573Z,11.87
2023-02-12T05:27:12.385Z,9.90
2023-02-12T05:29:39.124Z,8.70
2023-02-12T05:32:07.079Z,10.13
2023-02-12T05:34:35.158Z,10.63
2023-02-12T05:37:02.036Z,8.60
2023-02-12T05:39:28.799Z,7.97
2023-02-12T05:41:55.631Z,8.40
2023-02-12T05:44:22.429Z,9.77
2023-02-12T05:46:49.309Z,10.93
2023-02-12T05:49:16.099Z,10.97
2023-02-12T05:51:43.032Z,11.13
2023-02-12T05:54:10.350Z,11.30
2023-02-12T05:56:43.907Z,7.97
2023-02-12T05:59:17.568Z,9.23
2023-02-12T06:01:45.937Z,8.47
2023-02-12T06:04:19.261Z,9.27
2023-02-12T06:06:46.860Z,8.93
2023-02-12T06:09:14.533Z,9.37
2023-02-12T06:11:42.235Z,9.70
2023-02-12T06:14:12.691Z,10.17
2023-02-12T06:16:39.643Z,10.43
2023-02-12T06:19:07.229Z,10.60
2023-02-12T06:21:34.500Z,10.93
2023-02-12T06:24:01.362Z,8.87
2023-02-12T06:26:28.245Z,10.93
2023-02-12T06:28:55.206Z,10.37
2023-02-12T06:31:32.271Z,9.70
2023-02-12T06:34:02.628Z,9.37
2023-02-12T06:36:30.272Z,9.40
2023-02-12T06:38:57.287Z,10.70
2023-02-12T06:41:24.451Z,9.67
2023-02-12T06:43:51.412Z,10.60
2023-02-12T06:46:18.224Z,9.47
2023-02-12T06:48:45.348Z,12.10
2023-02-12T06:51:18.293Z,9.20
2023-02-12T06:53:45.590Z,12.53
2023-02-12T06:56:13.438Z,9.40
2023-02-12T06:58:42.562Z,8.77
2023-02-12T07:01:18.130Z,9.77
2023-02-12T07:03:48.878Z,10.47
2023-02-12T07:06:16.090Z,9.93
2023-02-12T07:08:43.026Z,12.00
2023-02-12T07:11:09.729Z,7.73
2023-02-12T07:13:36.666Z,9.30
2023-02-12T07:16:09.165Z,10.30
2023-02-12T07:18:36.915Z,8.77
2023-02-12T07:21:05.192Z,9.50
2023-02-12T07:23:32.903Z,10.97
2023-02-12T07:26:02.460Z,9.80
2023-02-12T07:28:29.706Z,8.33
2023-02-12T07:30:56.457Z,10.13
2023-02-12T07:33:23.186Z,13.87
2023-02-12T07:35:50.072Z,10.80
2023-02-12T07:38:16.891Z,11.60
2023-02-12T07:40:43.619Z,9.77
2023-02-12T07:43:10.365Z,12.80
2023-02-12T07:45:39.419Z,13.07
2023-02-12T07:48:06.416Z,13.23
2023-02-12T07:50:33.273Z,12.40
2023-02-12T07:52:59.989Z,14.73
2023-02-12T07:55:26.697Z,15.20
2023-02-12T07:57:53.446Z,10.73
2023-02-12T08:00:20.513Z,9.80
2023-02-12T08:02:54.547Z,11.50
2023-02-12T08:05:21.796Z,15.03
2023-02-12T08:07:48.598Z,13.00
2023-02-12T08:10:15.413Z,12.30
2023-02-12T08:12:42.187Z,13.50
2023-02-12T08:15:09.656Z,12.07
2023-02-12T08:17:36.820Z,12.27
2023-02-12T08:20:03.730Z,14.03
2023-02-12T08:22:30.442Z,16.00
2023-02-12T08:24:57.148Z,10.57
2023-02-12T08:27:23.836Z,12.60
2023-02-12T08:29:50.783Z,10.90
2023-02-12T08:32:18.539Z,13.97
2023-02-12T08:34:45.428Z,15.87
2023-02-12T08:37:12.188Z,14.67
2023-02-12T08:39:38.945Z,15.60
2023-02-12T08:42:05.954Z,15.07
2023-02-12T08:44:32.908Z,16.90
2023-02-12T08:46:59.552Z,11.47
2023-02-12T08:49:28.750Z,14.40
2023-02-12T08:51:57.830Z,13.87
2023-02-12T08:54:28.083Z,13.33
2023-02-12T08:57:00.855Z,16.47
2023-02-12T08:59:27.948Z,15.03
2023-02-12T09:01:55.469Z,15.90
2023-02-12T09:04:27.529Z,16.77
2023-02-12T09:06:55.800Z,15.13
2023-02-12T09:09:23.276Z,16.30
2023-02-12T09:11:51.373Z,15.77
2023-02-12T09:14:24.650Z,8.97
2023-02-12T09:16:57.336Z,12.53
2023-02-12T09:19:25.560Z,14.23
2023-02-12T09:21:56.764Z,13.53
2023-02-12T09:24:25.654Z,12.30
2023-02-12T09:26:52.597Z,11.73
2023-02-12T09:29:19.434Z,12.03
2023-02-12T09:31:46.396Z,12.87
2023-02-12T09:34:13.504Z,11.00
2023-02-12T09:36:40.564Z,13.27
2023-02-12T09:39:07.688Z,14.43
2023-02-12T09:42:15.764Z,13.23
2023-02-12T09:45:00.605Z,13.23
2023-02-12T09:47:40.166Z,13.87
2023-02-12T09:50:44.126Z,12.57
2023-02-12T09:53:15.104Z,15.47
2023-02-12T09:55:41.942Z,17.07
2023-02-12T09:58:18.853Z,12.63
2023-02-12T10:00:45.605Z,14.77
2023-02-12T10:03:16.808Z,14.23
2023-02-12T10:05:58.380Z,14.05
2023-02-12T10:08:43.670Z,14.38
2023-02-12T10:11:35.385Z,16.00
2023-02-12T10:14:07.926Z,11.32
2023-02-12T10:16:38.546Z,12.10
2023-02-12T10:19:18.070Z,9.45
2023-02-12T10:21:50.825Z,9.88
2023-02-12T10:24:38.755Z,7.38
2023-02-12T10:27:13.457Z,9.35
2023-02-12T10:29:43.744Z,6.97
2023-02-12T10:32:27.869Z,7.13
2023-02-12T10:34:56.892Z,9.35
2023-02-12T10:37:40.991Z,20.33
2023-02-12T10:40:17.538Z,9.10
2023-02-12T10:42:52.892Z,9.25
2023-02-12T10:45:25.245Z,12.13
2023-02-12T10:48:01.996Z,11.07
2023-02-12T10:50:44.883Z,7.63
2023-02-12T10:53:20.741Z,8.80
2023-02-12T10:55:47.938Z,10.13
2023-02-12T10:58:21.423Z,9.45
2023-02-12T11:00:57.634Z,9.48
2023-02-12T11:03:29.832Z,8.07
2023-02-12T11:05:57.044Z,6.35
2023-02-12T11:08:35.780Z,7.18
2023-02-12T11:11:09.012Z,5.90
2023-02-12T11:13:37.275Z,6.63
2023-02-12T11:16:04.557Z,11.98
2023-02-12T11:18:33.451Z,8.85
2023-02-12T11:21:03.758Z,9.40
2023-02-12T11:23:33.276Z,9.20
2023-02-12T11:26:03.746Z,9.63
2023-02-12T11:28:33.438Z,9.43
2023-02-12T11:31:03.483Z,9.10
2023-02-12T11:33:35.792Z,10.10
2023-02-12T11:36:05.606Z,16.02
2023-02-12T11:38:37.651Z,33.45
2023-02-12T11:41:22.963Z,14.40
2023-02-12T11:43:51.961Z,10.13
2023-02-12T11:46:21.951Z,10.80
2023-02-12T11:48:51.301Z,12.55
2023-02-12T11:51:29.433Z,9.02
2023-02-12T11:54:00.050Z,10.75
2023-02-12T11:56:42.647Z,11.30
2023-02-12T11:59:31.217Z,11.23
2023-02-12T12:02:04.328Z,11.15
2023-02-12T12:04:34.327Z,10.70
2023-02-12T12:07:11.712Z,13.95
2023-02-12T12:09:55.790Z,11.30
2023-02-12T12:12:22.763Z,9.45
2023-02-12T12:15:13.692Z,9.07
2023-02-12T12:18:31.497Z,10.75
2023-02-12T12:21:13.954Z,10.32
2023-02-12T12:23:47.550Z,10.85
2023-02-12T12:26:34.749Z,11.23
2023-02-12T12:29:11.076Z,11.75
2023-02-12T12:31:42.378Z,10.68
2023-02-12T12:34:13.692Z,11.07
2023-02-12T12:36:55.882Z,10.68
2023-02-12T12:39:44.104Z,9.85
2023-02-12T12:42:29.308Z,10.00
2023-02-12T12:45:27.528Z,9.18
2023-02-12T12:48:10.336Z,9.30
2023-02-12T12:51:28.340Z,8.20
2023-02-12T12:54:01.546Z,9.15
2023-02-12T12:56:56.487Z,9.38
2023-02-12T12:59:29.478Z,9.02
2023-02-12T13:01:59.247Z,9.05
2023-02-12T13:04:45.243Z,7.47
2023-02-12T13:07:46.522Z,7.63
2023-02-12T13:10:26.201Z,9.88
2023-02-12T13:13:06.697Z,8.93
2023-02-12T13:15:44.551Z,7.65
2023-02-12T13:19:01.991Z,8.77
2023-02-12T13:21:49.160Z,8.27
2023-02-12T13:24:53.496Z,11.90
2023-02-12T13:27:26.196Z,7.80
2023-02-12T13:29:59.933Z,8.33
2023-02-12T13:32:34.791Z,7.53
2023-02-12T13:35:05.304Z,9.07
2023-02-12T13:37:45.174Z,7.90
2023-02-12T13:40:27.575Z,7.40
2023-02-12T13:43:19.382Z,7.77
2023-02-12T13:46:01.393Z,7.75
2023-02-12T13:48:46.397Z,6.55
2023-02-12T13:51:29.862Z,8.00
2023-02-12T13:54:50.967Z,5.77
2023-02-12T13:57:19.822Z,5.88
2023-02-12T13:59:49.356Z,6.97
2023-02-12T14:02:34.766Z,4.90
2023-02-12T14:05:25.351Z,4.37
2023-02-12T14:07:59.798Z,5.80
2023-02-12T14:10:31.281Z,5.30
2023-02-12T14:13:16.413Z,6.40
2023-02-12T14:15:47.312Z,5.88
2023-02-12T14:18:29.241Z,6.40
2023-02-12T14:21:16.607Z,4.95
2023-02-12T14:23:46.151Z,5.32
2023-02-12T14:26:19.598Z,5.57
2023-02-12T14:29:06.808Z,4.35
2023-02-12T14:31:39.343Z,7.30
2023-02-12T14:34:06.337Z,5.13
2023-02-12T14:36:33.012Z,4.33
2023-02-12T14:39:30.175Z,5.70
2023-02-12T14:42:16.800Z,6.00
2023-02-12T14:44:58.251Z,6.90
2023-02-12T14:47:30.887Z,3.77
2023-02-12T14:50:06.996Z,4.13
2023-02-12T14:52:39.855Z,4.50
2023-02-12T14:55:20.471Z,8.57
2023-02-12T14:57:47.830Z,3.93
2023-02-12T15:00:17.576Z,6.13
2023-02-12T15:02:50.494Z,6.17
2023-02-12T15:05:26.166Z,7.30
2023-02-12T15:08:17.039Z,4.83
2023-02-12T15:10:51.293Z,3.57
2023-02-12T15:13:48.667Z,4.40
2023-02-12T15:16:27.643Z,4.03
2023-02-12T15:19:05.353Z,4.77
2023-02-12T15:21:33.737Z,5.73
2023-02-12T15:24:12.562Z,4.67
2023-02-12T15:26:44.919Z,4.90
2023-02-12T15:29:24.519Z,5.07
2023-02-12T15:31:55.082Z,7.50
2023-02-12T15:34:25.019Z,5.60
2023-02-12T15:36:52.384Z,5.80
2023-02-12T15:39:22.498Z,5.77
2023-02-12T15:41:49.728Z,6.50
2023-02-12T15:44:35.126Z,9.70
2023-02-12T15:47:16.344Z,9.13
2023-02-12T15:49:44.061Z,5.87
2023-02-12T15:52:28.151Z,6.37
2023-02-12T15:54:55.185Z,6.67
2023-02-12T15:57:24.001Z,5.57
2023-02-12T15:59:53.848Z,15.87
2023-02-12T16:02:25.665Z,9.77
2023-02-12T16:04:53.211Z,6.43
2023-02-12T16:07:20.848Z,7.50
2023-02-12T16:09:50.943Z,9.63
2023-02-12T16:12:21.949Z,9.10
2023-02-12T16:14:56.408Z,10.03
2023-02-12T16:17:26.545Z,10.57
2023-02-12T16:20:00.142Z,10.40
2023-02-12T16:22:44.643Z,10.70
2023-02-12T16:25:29.163Z,14.80
2023-02-12T16:28:01.446Z,12.93
2023-02-12T16:30:30.336Z,9.63
2023-02-12T16:32:58.987Z,11.23
2023-02-12T16:35:29.664Z,11.93
2023-02-12T16:38:33.500Z,13.17
2023-02-12T16:41:18.480Z,14.53
2023-02-12T16:44:01.542Z,17.83
2023-02-12T16:46:34.411Z,14.77
2023-02-12T16:49:02.492Z,15.83
2023-02-12T16:51:35.477Z,14.93
2023-02-12T16:54:04.457Z,14.73
2023-02-12T16:56:38.805Z,13.27
2023-02-12T16:59:05.823Z,18.20
2023-02-12T17:01:35.686Z,15.97
2023-02-12T17:04:07.620Z,17.73
2023-02-12T17:06:34.395Z,15.77
2023-02-12T17:09:01.232Z,15.97
2023-02-12T17:11:29.334Z,16.57
2023-02-12T17:13:57.228Z,13.97
2023-02-12T17:16:30.745Z,18.03
2023-02-12T17:18:59.167Z,15.77
2023-02-12T17:21:32.576Z,15.80
2023-02-12T17:24:00.055Z,15.83
2023-02-12T17:26:27.678Z,16.87
2023-02-12T17:28:54.632Z,25.73
2023-02-12T17:31:21.826Z,18.57
2023-02-12T17:33:48.649Z,39.20
2023-02-12T17:36:15.399Z,18.07
2023-02-12T17:38:42.547Z,23.73
2023-02-12T17:41:11.244Z,24.87
2023-02-12T17:43:38.296Z,31.50
2023-02-12T17:46:13.029Z,30.87
2023-02-12T17:48:40.806Z,20.20
2023-02-12T17:51:09.910Z,22.93
2023-02-12T17:53:36.859Z,29.20
2023-02-12T17:56:03.925Z,30.13
2023-02-12T17:58:31.250Z,21.93
2023-02-12T18:01:04.809Z,19.30
2023-02-12T18:03:31.547Z,23.53
2023-02-12T18:05:58.353Z,29.93
2023-02-12T18:08:25.229Z,32.43
2023-02-12T18:10:52.212Z,35.40
2023-02-12T18:13:19.197Z,31.80
2023-02-12T18:15:46.137Z,36.80
2023-02-12T18:18:13.326Z,30.13
2023-02-12T18:20:40.917Z,33.07
2023-02-12T18:23:08.558Z,36.87
2023-02-12T18:25:40.012Z,39.80
2023-02-12T18:28:06.816Z,39.63
2023-02-12T18:30:33.906Z,33.17
2023-02-12T18:33:00.892Z,34.20
2023-02-12T18:35:28.045Z,36.70
2023-02-12T18:37:54.736Z,34.93
2023-02-12T18:40:21.523Z,36.20
2023-02-12T18:42:48.341Z,38.30
2023-02-12T18:45:15.605Z,36.40
2023-02-12T18:47:42.517Z,33.60
2023-02-12T18:50:09.606Z,34.77
2023-02-12T18:52:37.652Z,36.23
2023-02-12T18:55:06.845Z,34.13
2023-02-12T18:57:33.773Z,33.80
2023-02-12T19:00:01.238Z,37.97
2023-02-12T19:02:28.551Z,40.67
2023-02-12T19:04:55.469Z,38.37
2023-02-12T19:07:22.231Z,39.07
2023-02-12T19:09:49.304Z,35.57
2023-02-12T19:12:16.453Z,42.37
2023-02-12T19:14:43.709Z,39.63
2023-02-12T19:17:10.479Z,37.00
2023-02-12T19:19:37.240Z,37.67
2023-02-12T19:22:04.376Z,38.03
2023-02-12T19:24:44.685Z,39.73
2023-02-12T19:27:12.807Z,38.80
2023-02-12T19:29:39.555Z,42.53
2023-02-12T19:32:06.491Z,42.50
2023-02-12T19:34:33.563Z,41.87
2023-02-12T19:37:00.426Z,43.17
2023-02-12T19:39:27.595Z,46.40
2023-02-12T19:41:56.206Z,40.17
2023-02-12T19:44:25.229Z,44.77
2023-02-12T19:46:53.220Z,46.27
2023-02-12T19:49:23.409Z,44.37
2023-02-12T19:51:51.113Z,39.97
2023-02-12T19:54:19.628Z,44.90
2023-02-12T19:56:47.423Z,50.53
2023-02-12T19:59:17.457Z,43.30
2023-02-12T20:01:44.964Z,44.67
2023-02-12T20:04:14.180Z,46.60
2023-02-12T20:06:42.136Z,45.97
2023-02-12T20:09:10.803Z,41.93
2023-02-12T20:11:39.384Z,52.00
2023-02-12T20:14:09.435Z,49.57
2023-02-12T20:16:39.401Z,51.37
2023-02-12T20:19:12.311Z,54.57
2023-02-12T20:21:39.818Z,43.87
2023-02-12T20:24:06.998Z,52.27
2023-02-12T20:26:34.819Z,43.33
2023-02-12T20:29:04.923Z,54.30
2023-02-12T20:31:36.049Z,48.57
2023-02-12T20:34:08.823Z,39.20
2023-02-12T20:36:37.904Z,45.93
2023-02-12T20:39:07.066Z,54.47
2023-02-12T20:41:37.249Z,53.93
2023-02-12T20:44:06.417Z,55.53
2023-02-12T20:46:36.186Z,69.57
2023-02-12T20:49:03.579Z,59.70
2023-02-12T20:51:31.246Z,79.60
2023-02-12T20:54:01.077Z,53.33
2023-02-12T20:56:30.615Z,57.17
2023-02-12T20:58:58.655Z,65.37
2023-02-12T21:01:29.061Z,52.47
2023-02-12T21:03:55.940Z,51.87
2023-02-12T21:06:24.440Z,68.33
2023-02-12T21:08:51.414Z,62.43
2023-02-12T21:11:24.243Z,48.10
2023-02-12T21:14:02.643Z,78.03
2023-02-12T21:16:37.777Z,72.87
2023-02-12T21:19:04.852Z,47.80
2023-02-12T21:21:34.588Z,71.40
2023-02-12T21:24:04.913Z,49.50
2023-02-12T21:26:33.548Z,62.70
2023-02-12T21:29:01.960Z,41.33
2023-02-12T21:31:32.384Z,59.67
2023-02-12T21:34:01.440Z,48.13
2023-02-12T21:36:31.690Z,57.30
2023-02-12T21:38:59.515Z,42.97
2023-02-12T21:41:31.475Z,49.90
2023-02-12T21:44:01.321Z,57.23
2023-02-12T21:46:29.725Z,59.20
2023-02-12T21:48:58.809Z,59.63
2023-02-12T21:51:32.559Z,97.10
2023-02-12T21:54:01.601Z,40.83
2023-02-12T21:56:29.055Z,58.53
2023-02-12T21:58:57.748Z,59.93
2023-02-12T22:01:27.894Z,51.50
2023-02-12T22:03:55.599Z,83.20
2023-02-12T22:06:24.945Z,44.87
2023-02-12T22:08:56.218Z,70.40
2023-02-12T22:11:23.487Z,49.97
2023-02-12T22:13:50.558Z,61.67
2023-02-12T22:16:23.916Z,97.07
2023-02-12T22:18:59.267Z,80.23
2023-02-12T22:21:31.100Z,79.50
2023-02-12T22:24:01.867Z,60.67
2023-02-12T22:26:30.364Z,91.43
2023-02-12T22:29:00.141Z,73.20
2023-02-12T22:31:32.924Z,82.07
2023-02-12T22:34:02.929Z,124.23
2023-02-12T22:36:30.394Z,75.80
2023-02-12T22:38:59.385Z,74.87
2023-02-12T22:41:27.116Z,75.50
2023-02-12T22:43:54.505Z,125.20
2023-02-12T22:46:21.556Z,86.33
2023-02-12T22:48:48.369Z,119.33
2023-02-12T22:51:20.568Z,81.23
2023-02-12T22:53:48.053Z,60.90
2023-02-12T22:56:15.994Z,82.33
2023-02-12T22:58:42.835Z,61.77
2023-02-12T23:01:19.322Z,54.10
2023-02-12T23:03:46.208Z,62.17
2023-02-12T23:06:19.641Z,100.93
2023-02-12T23:08:50.830Z,68.27
2023-02-12T23:11:19.036Z,59.93
2023-02-12T23:13:46.301Z,67.47
2023-02-12T23:16:13.277Z,62.20
2023-02-12T23:18:40.319Z,50.30
2023-02-12T23:21:07.099Z,81.17
2023-02-12T23:23:33.933Z,65.67
2023-02-12T23:26:01.403Z,60.93
2023-02-12T23:28:28.249Z,74.60
2023-02-12T23:30:55.148Z,62.27
2023-02-12T23:33:22.153Z,51.97
2023-02-12T23:35:49.723Z,105.90
2023-02-12T23:38:17.653Z,80.37
2023-02-12T23:40:44.855Z,42.33
2023-02-12T23:43:11.879Z,51.23
2023-02-12T23:45:38.793Z,57.37
2023-02-12T23:48:05.794Z,54.63
2023-02-12T23:50:32.784Z,34.87
2023-02-12T23:52:59.991Z,14.67
2023-02-12T23:55:26.959Z,46.93
2023-02-12T23:57:53.771Z,46.93
